Time;durP1;ratioP1;P1;durP2;ratioP2;P2;SDS_P1;SDS_P2;PMS_P1;PMS_P2;Temp;Humidity;BMP_temperature;BMP_pressure;BME280_temperature;BME280_humidity;BME280_pressure;Samples;Min_cycle;Max_cycle;Signal;HPM_P1;HPM_P2
2023/11/09 00:01:48;;;;;;;;;;;;;;;19.15;57.78;100478.56;5037861;28;6132;-77
2023/11/09 00:04:14;;;;;;;;;;;;;;;19.15;57.78;100469.94;5039904;28;2867;-77
2023/11/09 00:06:42;;;;;;;;;;;;;;;19.15;57.82;100475.69;5041146;28;2287;-77
2023/11/09 00:09:09;;;;;;;;;;;;;;;19.13;57.90;100462.00;5039099;28;2223;-76
2023/11/09 00:11:36;;;;;;;;;;;;;;;19.13;57.83;100456.25;5038468;28;2387;-77
2023/11/09 00:14:14;;;;;;;;;;;;;;;19.13;57.84;100456.25;5042356;28;2263;-77
2023/11/09 00:16:41;;;;;;;;;;;;;;;19.14;57.76;100462.72;5039502;28;2010;-77
2023/11/09 00:19:08;;;;;;;;;;;;;;;19.14;57.95;100454.13;5039411;28;2380;-77
2023/11/09 00:21:34;;;;;;;;;;;;;;;19.13;58.01;100462.00;5039570;28;2335;-76
2023/11/09 00:24:03;;;;;;;;;;;;;;;19.13;57.91;100449.78;5041886;28;1975;-77
2023/11/09 00:26:29;;;;;;;;;;;;;;;19.12;57.85;100457.63;5044874;28;2286;-77
2023/11/09 00:28:56;;;;;;;;;;;;;;;19.12;57.92;100445.41;5038815;28;2200;-78
2023/11/09 00:31:22;;;;;;;;;;;;;;;19.12;57.88;100434.66;5038987;28;6157;-77
2023/11/09 00:33:48;;;;;;;;;;;;;;;19.11;57.91;100436.06;5040829;28;2200;-76
2023/11/09 00:36:15;;;;;;;;;;;;;;;19.12;57.99;100440.41;5039971;28;2271;-77
2023/11/09 00:38:45;;;;;;;;;;;;;;;19.12;57.93;100459.78;5041428;28;2246;-77
2023/11/09 00:41:12;;;;;;;;;;;;;;;19.10;57.94;100445.31;5039656;28;2302;-77
2023/11/09 00:43:40;;;;;;;;;;;;;;;19.10;57.89;100440.31;5053948;28;2222;-77
2023/11/09 00:46:06;;;;;;;;;;;;;;;19.10;57.89;100430.97;5039946;28;2200;-77
2023/11/09 00:48:32;;;;;;;;;;;;;;;19.09;57.92;100427.38;5039770;28;2185;-77
2023/11/09 00:51:00;;;;;;;;;;;;;;;19.08;57.91;100420.16;5038177;28;2255;-76
2023/11/09 00:53:26;;;;;;;;;;;;;;;19.08;58.09;100414.41;5038284;28;2341;-77
2023/11/09 00:55:53;;;;;;;;;;;;;;;19.09;57.85;100415.88;5040220;28;2263;-77
2023/11/09 00:58:19;;;;;;;;;;;;;;;19.09;57.94;100413.03;5038783;28;2276;-77
2023/11/09 01:00:46;;;;;;;;;;;;;;;19.09;57.90;100409.41;5039616;28;6638;-77
2023/11/09 01:03:12;;;;;;;;;;;;;;;19.08;57.96;100408.69;5038005;28;2378;-77
2023/11/09 01:05:39;;;;;;;;;;;;;;;19.08;57.86;100399.31;5040089;28;1617;-77
2023/11/09 01:08:05;;;;;;;;;;;;;;;19.08;57.83;100393.56;5041790;28;2341;-77
2023/11/09 01:10:31;;;;;;;;;;;;;;;19.06;57.98;100394.25;5036043;28;2345;-77
2023/11/09 01:12:58;;;;;;;;;;;;;;;19.05;58.03;100392.75;5038225;28;2564;-77
2023/11/09 01:15:24;;;;;;;;;;;;;;;19.06;58.13;100385.63;5038978;28;2077;-77
2023/11/09 01:17:58;;;;;;;;;;;;;;;19.05;58.13;100381.28;5041716;28;2378;-79
2023/11/09 01:20:25;;;;;;;;;;;;;;;19.06;57.96;100377.03;5036968;28;2218;-77
2023/11/09 01:22:51;;;;;;;;;;;;;;;19.06;57.93;100377.03;5038672;28;2223;-79
2023/11/09 01:25:18;;;;;;;;;;;;;;;19.04;58.03;100366.19;5040008;28;2250;-77
2023/11/09 01:27:44;;;;;;;;;;;;;;;19.04;57.88;100356.84;5038905;28;2270;-77
2023/11/09 01:30:11;;;;;;;;;;;;;;;19.04;58.01;100363.31;5038183;28;6328;-77
2023/11/09 01:32:37;;;;;;;;;;;;;;;19.02;57.91;100363.22;5038134;28;2262;-77
2023/11/09 01:35:04;;;;;;;;;;;;;;;19.04;57.84;100359.72;5039296;28;2584;-76
2023/11/09 01:37:30;;;;;;;;;;;;;;;19.03;57.97;100361.09;5037543;28;2376;-77
2023/11/09 01:39:56;;;;;;;;;;;;;;;19.04;57.75;100356.84;5041037;28;2407;-77
2023/11/09 01:42:23;;;;;;;;;;;;;;;19.02;57.79;100353.88;5037691;28;2251;-77
2023/11/09 01:44:49;;;;;;;;;;;;;;;19.03;57.74;100355.34;5040234;28;2259;-78
2023/11/09 01:47:16;;;;;;;;;;;;;;;19.03;57.80;100338.13;5040137;28;2190;-76
2023/11/09 01:49:43;;;;;;;;;;;;;;;19.03;57.77;100338.13;5022984;28;2286;-77
2023/11/09 01:52:09;;;;;;;;;;;;;;;19.02;57.91;100334.53;5035903;28;2373;-77
2023/11/09 01:54:36;;;;;;;;;;;;;;;19.02;57.72;100336.66;5038207;28;2317;-79
2023/11/09 01:57:03;;;;;;;;;;;;;;;19.01;57.94;100329.44;5036755;28;1850;-77
2023/11/09 01:59:30;;;;;;;;;;;;;;;19.01;57.92;100323.69;5032955;28;1836;-77
2023/11/09 02:01:57;;;;;;;;;;;;;;;19.01;57.80;100317.97;5034372;28;6259;-77
2023/11/09 02:04:24;;;;;;;;;;;;;;;19.01;57.75;100317.97;5041343;28;2206;-77
2023/11/09 02:06:52;;;;;;;;;;;;;;;19.01;57.92;100312.22;5057869;28;2459;-77
2023/11/09 02:09:18;;;;;;;;;;;;;;;19.00;57.81;100322.22;5041896;28;2377;-77
2023/11/09 02:11:46;;;;;;;;;;;;;;;19.00;57.88;100316.50;5037653;28;2254;-76
2023/11/09 02:14:14;;;;;;;;;;;;;;;18.98;57.86;100310.66;5041733;28;2327;-79
2023/11/09 02:16:41;;;;;;;;;;;;;;;19.00;57.88;100302.16;5040648;28;2195;-79
2023/11/09 02:19:07;;;;;;;;;;;;;;;19.00;57.78;100307.88;5044657;28;2294;-77
2023/11/09 02:21:34;;;;;;;;;;;;;;;18.99;57.79;100304.28;5056621;28;2289;-77
2023/11/09 02:24:00;;;;;;;;;;;;;;;18.99;57.85;100295.69;5041968;28;2386;-78
2023/11/09 02:26:27;;;;;;;;;;;;;;;18.99;57.84;100289.94;5042072;28;2242;-71
2023/11/09 02:28:53;;;;;;;;;;;;;;;18.98;57.70;100287.72;5037774;28;2346;-82
2023/11/09 02:31:20;;;;;;;;;;;;;;;18.98;57.88;100287.72;5020216;28;6229;-82
2023/11/09 02:33:46;;;;;;;;;;;;;;;18.98;57.76;100279.09;5042278;28;2267;-82
2023/11/09 02:36:13;;;;;;;;;;;;;;;18.97;57.66;100277.63;5044005;28;2310;-81
2023/11/09 02:38:40;;;;;;;;;;;;;;;18.96;57.85;100279.75;5041172;28;2278;-82
2023/11/09 02:41:08;;;;;;;;;;;;;;;18.98;57.65;100279.09;5042294;28;2275;-82
2023/11/09 02:43:40;;;;;;;;;;;;;;;18.99;57.68;100269.13;5045194;28;2271;-82
2023/11/09 02:46:06;;;;;;;;;;;;;;;18.97;57.66;100271.91;5042362;28;2287;-82
2023/11/09 02:48:33;;;;;;;;;;;;;;;18.97;57.81;100266.16;5042187;28;2306;-81
2023/11/09 02:50:59;;;;;;;;;;;;;;;18.96;57.66;100256.78;5043508;28;2358;-82
2023/11/09 02:53:25;;;;;;;;;;;;;;;18.95;57.89;100257.47;5051079;28;2223;-81
2023/11/09 02:55:52;;;;;;;;;;;;;;;18.95;57.77;100255.31;5042158;28;2282;-81
2023/11/09 02:58:18;;;;;;;;;;;;;;;18.95;57.80;100252.47;5041721;28;2297;-81
2023/11/09 03:00:45;;;;;;;;;;;;;;;18.95;57.85;100252.47;5040723;28;6068;-81
2023/11/09 03:03:11;;;;;;;;;;;;;;;18.95;57.76;100251.72;5038482;28;2238;-82
2023/11/09 03:05:38;;;;;;;;;;;;;;;18.96;57.79;100253.19;5041356;28;2324;-82
2023/11/09 03:08:05;;;;;;;;;;;;;;;18.95;57.64;100246.72;5041998;28;2359;-81
2023/11/09 03:10:31;;;;;;;;;;;;;;;18.94;57.72;100245.22;5040551;28;2533;-82
2023/11/09 03:13:00;;;;;;;;;;;;;;;18.94;57.78;100245.22;5041657;28;2294;-81
2023/11/09 03:15:26;;;;;;;;;;;;;;;18.94;57.83;100233.03;5041847;28;2275;-81
2023/11/09 03:17:52;;;;;;;;;;;;;;;18.93;57.73;100237.28;5040467;28;2294;-81
2023/11/09 03:20:20;;;;;;;;;;;;;;;18.94;57.73;100230.16;5041094;28;2297;-81
2023/11/09 03:22:47;;;;;;;;;;;;;;;18.93;57.67;100237.28;5043166;28;2227;-81
2023/11/09 03:25:13;;;;;;;;;;;;;;;18.92;57.87;100233.69;5042238;28;2272;-82
2023/11/09 03:27:40;;;;;;;;;;;;;;;18.92;57.82;100230.81;5039711;28;2195;-81
2023/11/09 03:30:07;;;;;;;;;;;;;;;18.93;57.70;100220.06;5043095;28;6194;-81
2023/11/09 03:32:33;;;;;;;;;;;;;;;18.92;57.66;100224.31;5040107;28;2306;-81
2023/11/09 03:35:01;;;;;;;;;;;;;;;18.92;57.81;100224.31;5039861;28;1656;-81
2023/11/09 03:37:27;;;;;;;;;;;;;;;18.91;57.59;100217.13;5040146;28;2479;-82
2023/11/09 03:39:55;;;;;;;;;;;;;;;18.92;57.81;100212.84;5043004;28;2199;-82
2023/11/09 03:42:23;;;;;;;;;;;;;;;18.91;57.93;100202.78;5041861;28;2248;-80
2023/11/09 03:44:49;;;;;;;;;;;;;;;18.91;57.97;100205.66;5046853;28;2317;-81
2023/11/09 03:47:17;;;;;;;;;;;;;;;18.92;57.99;100204.25;5039952;28;2288;-81
2023/11/09 03:49:43;;;;;;;;;;;;;;;18.92;57.87;100201.38;5042573;28;2314;-81
2023/11/09 03:52:10;;;;;;;;;;;;;;;18.93;57.80;100192.13;5048693;28;2026;-80
2023/11/09 03:54:36;;;;;;;;;;;;;;;18.95;57.92;100182.88;5041723;28;2192;-81
2023/11/09 03:57:03;;;;;;;;;;;;;;;18.96;57.96;100181.47;5040298;28;2249;-80
2023/11/09 03:59:29;;;;;;;;;;;;;;;18.97;57.97;100180.09;5040240;28;2227;-81
2023/11/09 04:01:56;;;;;;;;;;;;;;;18.98;58.21;100178.69;5038958;28;6083;-80
2023/11/09 04:04:23;;;;;;;;;;;;;;;19.00;58.10;100175.91;5043977;28;2362;-80
2023/11/09 04:06:50;;;;;;;;;;;;;;;19.00;58.31;100173.03;5041373;28;1707;-81
2023/11/09 04:09:16;;;;;;;;;;;;;;;18.99;58.19;100171.56;5041567;28;2267;-81
2023/11/09 04:11:43;;;;;;;;;;;;;;;19.01;58.39;100168.75;5042574;28;2219;-79
2023/11/09 04:14:09;;;;;;;;;;;;;;;19.01;58.37;100160.16;5041034;28;2398;-81
2023/11/09 04:16:35;;;;;;;;;;;;;;;19.01;58.17;100152.31;5037757;28;2362;-80
2023/11/09 04:19:02;;;;;;;;;;;;;;;19.01;58.16;100142.94;5042681;28;2259;-81
2023/11/09 04:21:28;;;;;;;;;;;;;;;19.01;58.21;100145.81;5042003;28;2263;-81
2023/11/09 04:23:55;;;;;;;;;;;;;;;19.03;58.19;100137.28;5038262;28;2294;-80
2023/11/09 04:26:22;;;;;;;;;;;;;;;19.04;58.21;100144.50;5040422;28;2289;-81
2023/11/09 04:28:52;;;;;;;;;;;;;;;19.05;58.25;100134.50;5041253;28;2274;-81
2023/11/09 04:31:20;;;;;;;;;;;;;;;19.05;58.33;100128.75;5037098;28;6087;-81
2023/11/09 04:33:47;;;;;;;;;;;;;;;19.07;58.28;100125.25;5037325;28;2235;-81
2023/11/09 04:36:14;;;;;;;;;;;;;;;19.06;58.20;100118.78;5041646;28;2405;-80
2023/11/09 04:38:41;;;;;;;;;;;;;;;19.07;58.21;100117.34;5039410;28;2125;-80
2023/11/09 04:41:15;;;;;;;;;;;;;;;19.07;58.38;100114.50;5039844;28;2302;-81
2023/11/09 04:43:42;;;;;;;;;;;;;;;19.07;58.32;100114.50;5036647;28;2349;-81
2023/11/09 04:46:17;;;;;;;;;;;;;;;19.08;58.06;100104.50;5041486;28;2307;-81
2023/11/09 04:48:47;;;;;;;;;;;;;;;19.08;58.18;100095.91;5041779;28;2178;-81
2023/11/09 04:51:30;;;;;;;;;;;;;;;19.08;58.25;100087.28;5040041;28;2137;-81
2023/11/09 04:54:03;;;;;;;;;;;;;;;19.09;58.28;100093.75;5040287;28;2410;-81
2023/11/09 04:56:38;;;;;;;;;;;;;;;19.09;58.41;100083.00;5038137;28;2493;-81
2023/11/09 05:07:27;;;;;;;;;;;;;;;19.11;58.45;100085.97;5039428;28;2319;-81
2023/11/09 05:09:54;;;;;;;;;;;;;;;19.11;58.35;100074.50;5038004;28;2305;-81
2023/11/09 05:12:21;;;;;;;;;;;;;;;19.12;58.36;100075.94;5038843;28;2354;-81
2023/11/09 05:14:47;;;;;;;;;;;;;;;19.12;58.42;100070.22;5039622;28;2220;-82
2023/11/09 05:17:13;;;;;;;;;;;;;;;19.12;58.34;100070.22;5037481;28;2325;-81
2023/11/09 05:19:40;;;;;;;;;;;;;;;19.12;58.38;100070.22;5038314;28;2339;-80
2023/11/09 05:22:08;;;;;;;;;;;;;;;19.12;58.59;100064.47;5038471;28;2349;-80
2023/11/09 05:24:40;;;;;;;;;;;;;;;19.13;58.51;100050.88;5041877;28;1918;-81
2023/11/09 05:27:07;;;;;;;;;;;;;;;19.13;58.55;100059.50;5039763;28;2240;-81
2023/11/09 05:29:33;;;;;;;;;;;;;;;19.13;58.46;100060.22;5039414;28;2286;-80
2023/11/09 05:32:06;;;;;;;;;;;;;;;19.14;58.42;100060.94;5041209;28;7271;-80
2023/11/09 05:34:33;;;;;;;;;;;;;;;19.15;58.49;100054.56;5039056;28;1605;-80
2023/11/09 05:37:00;;;;;;;;;;;;;;;19.15;58.40;100048.06;5038221;28;2252;-80
2023/11/09 05:39:27;;;;;;;;;;;;;;;19.15;58.50;100040.22;5038306;28;2006;-80
2023/11/09 05:41:54;;;;;;;;;;;;;;;19.16;58.38;100046.69;5037979;28;2240;-78
2023/11/09 05:44:21;;;;;;;;;;;;;;;19.16;58.31;100047.41;5039480;28;2281;-79
2023/11/09 05:46:48;;;;;;;;;;;;;;;19.16;58.28;100044.53;5038758;28;2299;-78
2023/11/09 05:49:15;;;;;;;;;;;;;;;19.16;58.50;100041.66;5036891;28;2219;-82
2023/11/09 05:51:46;;;;;;;;;;;;;;;19.16;58.37;100038.81;5038341;28;2281;-81
2023/11/09 05:54:13;;;;;;;;;;;;;;;19.16;58.52;100035.94;5038915;28;2227;-81
2023/11/09 05:56:41;;;;;;;;;;;;;;;19.16;58.52;100029.47;5038251;28;2321;-81
2023/11/09 05:59:09;;;;;;;;;;;;;;;19.17;58.67;100036.66;5039966;28;1944;-81
2023/11/09 06:01:36;;;;;;;;;;;;;;;19.17;58.74;100025.94;5038560;28;6185;-79
2023/11/09 06:04:03;;;;;;;;;;;;;;;19.18;58.67;100033.16;5038657;28;1962;-81
2023/11/09 06:06:30;;;;;;;;;;;;;;;19.19;58.76;100031.00;5038030;28;2255;-80
2023/11/09 06:08:56;;;;;;;;;;;;;;;19.19;58.71;100028.88;5038845;28;2251;-80
2023/11/09 06:11:24;;;;;;;;;;;;;;;19.21;58.60;100031.81;5036573;28;2401;-71
2023/11/09 06:13:51;;;;;;;;;;;;;;;19.23;58.55;100037.63;5038918;28;2271;-71
2023/11/09 06:16:19;;;;;;;;;;;;;;;19.24;58.53;100042.00;5037026;28;2322;-73
2023/11/09 06:18:46;;;;;;;;;;;;;;;19.24;58.89;100042.00;5038893;28;2334;-72
2023/11/09 06:21:12;;;;;;;;;;;;;;;19.20;58.87;100024.63;5038472;28;2285;-77
2023/11/09 06:23:38;;;;;;;;;;;;;;;19.28;58.77;100017.69;5035603;28;2240;-76
2023/11/09 06:26:05;;;;;;;;;;;;;;;19.31;58.68;100022.09;5034718;28;2374;-74
2023/11/09 06:28:32;;;;;;;;;;;;;;;19.34;58.89;100030.16;5032257;28;2312;-73
2023/11/09 06:31:04;;;;;;;;;;;;;;;19.31;59.43;100022.09;5031370;28;6134;-73
2023/11/09 06:33:30;;;;;;;;;;;;;;;19.29;59.48;100019.16;5031488;28;2260;-73
2023/11/09 06:35:58;;;;;;;;;;;;;;;19.29;59.57;100019.16;5036623;28;2101;-72
2023/11/09 06:38:25;;;;;;;;;;;;;;;19.27;59.57;100028.44;5051403;28;2969;-73
2023/11/09 06:40:52;;;;;;;;;;;;;;;19.29;59.76;100019.16;5037582;28;1822;-73
2023/11/09 06:43:19;;;;;;;;;;;;;;;19.29;58.26;100019.91;5035451;28;2308;-73
2023/11/09 06:45:46;;;;;;;;;;;;;;;19.27;57.20;100019.84;5037041;28;2346;-73
2023/11/09 06:48:12;;;;;;;;;;;;;;;19.27;56.71;100021.97;5036204;28;2177;-73
2023/11/09 06:50:39;;;;;;;;;;;;;;;19.24;56.17;100015.41;5039515;28;2252;-72
2023/11/09 06:53:05;;;;;;;;;;;;;;;19.24;55.52;100021.16;5037430;28;3037;-72
2023/11/09 06:55:32;;;;;;;;;;;;;;;19.19;55.53;100026.00;5040083;28;2770;-73
2023/11/09 06:57:58;;;;;;;;;;;;;;;19.17;57.34;100025.94;5038480;28;2521;-72
2023/11/09 07:00:25;;;;;;;;;;;;;;;19.36;55.46;100018.75;5037966;28;6353;-73
2023/11/09 07:02:51;;;;;;;;;;;;;;;19.47;55.12;100017.00;5037618;28;2275;-74
2023/11/09 07:05:19;;;;;;;;;;;;;;;19.51;54.87;100028.59;5035432;28;2242;-73
2023/11/09 07:07:50;;;;;;;;;;;;;;;19.47;53.29;100028.47;5058369;28;2420;-72
2023/11/09 07:10:18;;;;;;;;;;;;;;;19.48;52.88;100023.47;5033289;28;2383;-72
2023/11/09 07:12:44;;;;;;;;;;;;;;;19.44;52.74;100024.78;5040771;28;2326;-70
2023/11/09 07:15:10;;;;;;;;;;;;;;;19.52;53.06;100012.88;5039968;28;2140;-71
2023/11/09 07:17:37;;;;;;;;;;;;;;;19.63;53.33;100022.56;5037249;28;2331;-70
2023/11/09 07:20:06;;;;;;;;;;;;;;;19.71;53.01;100027.91;5038352;28;2255;-69
2023/11/09 07:22:33;;;;;;;;;;;;;;;19.74;53.02;100021.56;5033479;28;2298;-71
2023/11/09 07:25:00;;;;;;;;;;;;;;;19.75;53.41;100023.03;5037743;28;2133;-71
2023/11/09 07:27:38;;;;;;;;;;;;;;;20.13;54.16;100019.28;5043469;28;1648;-70
2023/11/09 07:30:05;;;;;;;;;;;;;;;19.81;53.82;100019.63;5038715;28;6663;-72
2023/11/09 07:32:32;;;;;;;;;;;;;;;19.64;54.54;100013.28;5040204;28;2663;-71
2023/11/09 07:34:58;;;;;;;;;;;;;;;19.61;55.38;100020.38;5034003;28;2409;-70
2023/11/09 07:37:27;;;;;;;;;;;;;;;19.82;55.65;100015.38;5040232;28;2694;-72
2023/11/09 07:39:53;;;;;;;;;;;;;;;19.92;55.64;100012.84;5040489;28;1666;-72
2023/11/09 07:42:20;;;;;;;;;;;;;;;20.04;55.36;100016.16;5039648;28;2543;-71
2023/11/09 07:44:46;;;;;;;;;;;;;;;20.11;55.19;100022.09;5043572;28;2392;-75
2023/11/09 07:47:13;;;;;;;;;;;;;;;20.24;55.15;100018.22;5044732;28;2214;-73
2023/11/09 07:49:39;;;;;;;;;;;;;;;20.16;55.11;100020.81;5050554;28;2254;-75
2023/11/09 07:52:06;;;;;;;;;;;;;;;19.98;55.48;100021.69;5046852;28;2314;-74
2023/11/09 07:54:32;;;;;;;;;;;;;;;19.78;56.07;100009.47;5043302;28;2453;-74
2023/11/09 07:57:01;;;;;;;;;;;;;;;19.74;56.09;100004.31;5039968;28;1554;-74
2023/11/09 07:59:28;;;;;;;;;;;;;;;19.71;56.44;99999.19;5040646;28;2294;-75
2023/11/09 08:01:56;;;;;;;;;;;;;;;19.66;56.43;99993.25;5037998;28;6141;-74
2023/11/09 08:04:27;;;;;;;;;;;;;;;19.62;56.77;99993.13;5033890;28;2401;-74
2023/11/09 08:06:54;;;;;;;;;;;;;;;19.64;56.89;99983.84;5037675;28;2283;-75
2023/11/09 08:09:21;;;;;;;;;;;;;;;19.63;56.61;99985.97;5038239;28;2417;-74
2023/11/09 08:11:48;;;;;;;;;;;;;;;19.61;56.83;99982.31;5040907;28;2315;-75
2023/11/09 08:14:14;;;;;;;;;;;;;;;19.62;57.07;99986.63;5038043;28;2279;-74
2023/11/09 08:16:41;;;;;;;;;;;;;;;19.63;56.77;99988.84;5038112;28;2373;-74
2023/11/09 08:19:08;;;;;;;;;;;;;;;19.63;56.80;99988.09;5039775;28;2396;-75
2023/11/09 08:21:35;;;;;;;;;;;;;;;19.67;56.80;99983.22;5038598;28;2452;-76
2023/11/09 08:24:02;;;;;;;;;;;;;;;19.70;57.02;99986.22;5038077;28;2251;-75
2023/11/09 08:26:29;;;;;;;;;;;;;;;19.76;56.77;99977.81;5036457;28;2354;-74
2023/11/09 08:28:56;;;;;;;;;;;;;;;19.88;56.85;99978.22;5040527;28;2551;-68
2023/11/09 08:31:25;;;;;;;;;;;;;;;19.93;56.63;99976.97;5036901;28;6177;-76
2023/11/09 08:33:54;;;;;;;;;;;;;;;19.92;56.74;99981.25;5036482;28;2429;-68
2023/11/09 08:36:21;;;;;;;;;;;;;;;19.93;56.65;99976.22;5039024;28;2282;-67
2023/11/09 08:38:47;;;;;;;;;;;;;;;19.81;56.50;99979.41;5034883;28;2349;-67
2023/11/09 08:41:15;;;;;;;;;;;;;;;19.75;57.08;99974.22;5040728;28;2341;-65
2023/11/09 08:43:41;;;;;;;;;;;;;;;19.75;57.08;99974.22;5040713;28;2436;-65
2023/11/09 08:46:08;;;;;;;;;;;;;;;19.79;57.30;99977.22;5038775;28;2385;-64
2023/11/09 08:48:36;;;;;;;;;;;;;;;19.86;57.17;99969.56;5039015;28;2358;-65
2023/11/09 08:51:02;;;;;;;;;;;;;;;19.93;57.02;99973.34;5040954;28;2211;-64
2023/11/09 08:53:31;;;;;;;;;;;;;;;20.01;57.12;99971.50;5039038;28;2100;-65
2023/11/09 08:56:01;;;;;;;;;;;;;;;20.05;56.80;99982.41;5036534;28;2334;-66
2023/11/09 08:58:27;;;;;;;;;;;;;;;20.11;56.76;99973.25;5039675;28;2365;-67
2023/11/09 09:00:54;;;;;;;;;;;;;;;20.28;56.63;99972.38;5038353;28;6331;-66
2023/11/09 09:03:24;;;;;;;;;;;;;;;20.26;56.44;99969.44;5038355;28;2475;-66
2023/11/09 09:05:55;;;;;;;;;;;;;;;20.12;56.68;99966.09;5033843;28;2306;-65
2023/11/09 09:08:26;;;;;;;;;;;;;;;20.12;56.72;99960.34;5036121;28;2430;-66
2023/11/09 09:10:56;;;;;;;;;;;;;;;20.23;56.62;99956.41;5040554;28;2357;-63
2023/11/09 09:13:23;;;;;;;;;;;;;;;20.30;56.52;99960.94;5037852;28;2396;-63
2023/11/09 09:15:49;;;;;;;;;;;;;;;20.31;56.49;99953.78;5035748;28;2373;-63
2023/11/09 09:18:16;;;;;;;;;;;;;;;20.35;56.27;99964.69;5039396;28;2393;-62
2023/11/09 09:20:43;;;;;;;;;;;;;;;20.38;56.22;99969.81;5039087;28;2670;-64
2023/11/09 09:23:10;;;;;;;;;;;;;;;20.39;56.09;99976.31;5039049;28;2805;-65
2023/11/09 09:25:38;;;;;;;;;;;;;;;20.43;56.22;99974.31;5031821;28;2448;-64
2023/11/09 09:28:05;;;;;;;;;;;;;;;20.42;56.31;99975.69;5037626;28;2452;-65
2023/11/09 09:30:31;;;;;;;;;;;;;;;20.44;55.92;99972.91;5037882;28;6518;-64
2023/11/09 09:32:59;;;;;;;;;;;;;;;20.44;56.11;99972.91;5038224;28;2490;-64
2023/11/09 09:35:27;;;;;;;;;;;;;;;20.35;56.12;99959.66;5023824;28;4296;-65
2023/11/09 09:38:04;;;;;;;;;;;;;;;20.25;56.35;99962.22;5035342;28;4566;-66
2023/11/09 09:40:32;;;;;;;;;;;;;;;20.22;56.12;99969.28;5035748;28;5476;-67
2023/11/09 09:43:12;;;;;;;;;;;;;;;20.12;56.37;99963.22;5037098;28;2868;-66
2023/11/09 09:45:39;;;;;;;;;;;;;;;20.06;56.62;99966.63;5029202;28;3073;-67
2023/11/09 09:48:05;;;;;;;;;;;;;;;20.00;56.71;99961.41;5031903;28;2279;-66
2023/11/09 09:50:39;;;;;;;;;;;;;;;20.02;56.64;99963.59;5033036;28;2248;-66
2023/11/09 09:53:08;;;;;;;;;;;;;;;19.98;56.55;99963.50;5032254;28;5074;-64
2023/11/09 09:55:35;;;;;;;;;;;;;;;19.98;56.57;99961.34;5035039;28;2247;-65
2023/11/09 09:58:03;;;;;;;;;;;;;;;20.04;56.49;99961.56;5037913;28;3157;-65
2023/11/09 10:00:31;;;;;;;;;;;;;;;20.01;56.50;99962.88;5035645;28;6673;-66
2023/11/09 10:03:01;;;;;;;;;;;;;;;20.07;56.47;99959.47;5034500;28;2244;-65
2023/11/09 10:05:29;;;;;;;;;;;;;;;20.08;56.66;99952.31;5038688;28;2749;-66
2023/11/09 10:07:56;;;;;;;;;;;;;;;20.08;56.57;99955.91;5036335;28;2368;-69
2023/11/09 10:10:22;;;;;;;;;;;;;;;20.11;56.50;99958.88;5035708;28;4396;-69
2023/11/09 10:12:49;;;;;;;;;;;;;;;20.11;56.50;99958.88;5039291;28;1663;-69
2023/11/09 10:15:15;;;;;;;;;;;;;;;20.11;56.49;99958.88;5038205;28;3652;-67
2023/11/09 10:17:43;;;;;;;;;;;;;;;20.08;56.40;99950.16;5039951;28;1557;-68
2023/11/09 10:20:14;;;;;;;;;;;;;;;19.72;54.71;99960.44;5036068;28;2313;-65
2023/11/09 10:22:43;;;;;;;;;;;;;;;19.98;55.35;99957.75;5037582;28;2363;-66
2023/11/09 10:25:13;;;;;;;;;;;;;;;20.17;55.37;99953.31;5039584;28;2385;-64
2023/11/09 10:27:39;;;;;;;;;;;;;;;20.27;55.28;99953.66;5059830;28;2346;-64
2023/11/09 10:30:07;;;;;;;;;;;;;;;20.29;55.36;99940.09;5042506;28;7110;-65
2023/11/09 10:32:35;;;;;;;;;;;;;;;20.18;55.53;99943.28;5043108;28;2442;-66
2023/11/09 10:35:03;;;;;;;;;;;;;;;20.08;55.77;99938.69;5037931;28;2599;-66
2023/11/09 10:37:30;;;;;;;;;;;;;;;20.07;55.60;99945.84;5057770;28;2230;-65
2023/11/09 10:39:57;;;;;;;;;;;;;;;20.23;55.93;99933.41;5043010;28;1791;-64
2023/11/09 10:42:24;;;;;;;;;;;;;;;20.27;55.57;99933.53;5042705;28;2282;-65
2023/11/09 10:44:55;;;;;;;;;;;;;;;20.44;55.21;99926.16;5041845;28;2272;-64
2023/11/09 10:47:24;;;;;;;;;;;;;;;20.34;55.27;99923.72;5042651;28;2129;-64
2023/11/09 10:49:52;;;;;;;;;;;;;;;19.46;52.93;99926.50;5046787;28;2325;-66
2023/11/09 10:52:19;;;;;;;;;;;;;;;19.42;53.12;99924.25;5040370;28;2260;-66
2023/11/09 10:54:48;;;;;;;;;;;;;;;19.84;52.92;99932.13;5040861;28;2314;-66
2023/11/09 10:57:15;;;;;;;;;;;;;;;19.94;52.99;99928.88;5041483;28;2319;-68
2023/11/09 10:59:41;;;;;;;;;;;;;;;20.08;54.28;99932.94;5040664;28;2375;-66
2023/11/09 11:02:27;;;;;;;;;;;;;;;19.99;53.31;99931.19;5044078;28;6579;-66
2023/11/09 11:04:56;;;;;;;;;;;;;;;20.01;52.29;99925.50;5037036;28;2857;-64
2023/11/09 11:07:27;;;;;;;;;;;;;;;20.10;52.76;99929.41;5040747;28;2300;-67
2023/11/09 11:10:05;;;;;;;;;;;;;;;20.05;54.34;99917.03;5041709;28;2238;-66
2023/11/09 11:12:31;;;;;;;;;;;;;;;20.02;54.57;99918.38;5036483;28;2307;-64
2023/11/09 11:14:58;;;;;;;;;;;;;;;20.04;54.68;99921.31;5041394;28;2326;-64
2023/11/09 11:17:32;;;;;;;;;;;;;;;20.08;54.67;99926.44;5040233;28;2280;-65
2023/11/09 11:20:09;;;;;;;;;;;;;;;20.09;54.87;99920.03;5050608;28;1847;-64
2023/11/09 11:22:55;;;;;;;;;;;;;;;19.95;55.40;99933.94;5036427;28;2560;-66
2023/11/09 11:25:28;;;;;;;;;;;;;;;19.90;55.90;99915.09;5038811;28;2387;-65
2023/11/09 11:27:58;;;;;;;;;;;;;;;19.87;56.29;99922.91;5042793;28;2181;-65
2023/11/09 11:30:25;;;;;;;;;;;;;;;19.73;55.88;99924.59;5037993;28;6144;-64
2023/11/09 11:32:54;;;;;;;;;;;;;;;19.93;52.89;99922.38;5041450;28;2593;-66
2023/11/09 11:35:28;;;;;;;;;;;;;;;20.09;52.90;99928.66;5037508;28;2197;-66
2023/11/09 11:38:04;;;;;;;;;;;;;;;20.18;53.65;99920.28;5040839;28;2219;-66
2023/11/09 11:40:33;;;;;;;;;;;;;;;20.20;54.26;99926.09;5041837;28;2208;-66
2023/11/09 11:42:59;;;;;;;;;;;;;;;20.16;55.23;99914.47;5039457;28;2305;-66
2023/11/09 11:45:26;;;;;;;;;;;;;;;20.17;55.36;99918.84;5040103;28;1955;-66
2023/11/09 11:47:59;;;;;;;;;;;;;;;20.19;55.57;99911.00;5049023;28;2470;-66
2023/11/09 11:50:26;;;;;;;;;;;;;;;20.22;55.34;99914.69;5043010;28;2238;-66
2023/11/09 11:53:00;;;;;;;;;;;;;;;20.23;55.47;99907.53;5037163;28;2246;-66
2023/11/09 11:55:28;;;;;;;;;;;;;;;20.20;55.47;99908.88;5038460;28;2317;-66
2023/11/09 11:58:03;;;;;;;;;;;;;;;20.17;55.87;99918.84;5041313;28;2335;-67
2023/11/09 12:00:42;;;;;;;;;;;;;;;20.17;55.90;99898.72;5048182;28;6439;-66
2023/11/09 12:03:09;;;;;;;;;;;;;;;20.00;56.15;99909.69;5038992;28;2301;-65
2023/11/09 12:05:40;;;;;;;;;;;;;;;20.00;56.29;99909.69;5038398;28;2190;-65
2023/11/09 12:08:12;;;;;;;;;;;;;;;20.37;56.45;99902.22;5036465;28;4114;-65
2023/11/09 12:10:41;;;;;;;;;;;;;;;20.54;55.79;99899.84;5040497;28;1569;-64
2023/11/09 12:13:08;;;;;;;;;;;;;;;20.64;55.31;99903.81;5041565;28;2288;-64
2023/11/09 12:15:35;;;;;;;;;;;;;;;20.50;55.39;99895.44;5039779;28;2195;-66
2023/11/09 12:18:02;;;;;;;;;;;;;;;20.43;55.81;99893.03;5040726;28;2113;-66
2023/11/09 12:20:33;;;;;;;;;;;;;;;20.42;55.81;99886.56;5039969;28;2169;-67
2023/11/09 12:23:06;;;;;;;;;;;;;;;20.38;55.96;99883.56;5041429;28;2215;-67
2023/11/09 12:25:51;;;;;;;;;;;;;;;20.38;55.94;99883.56;5038210;28;2275;-66
2023/11/09 12:28:19;;;;;;;;;;;;;;;20.22;56.16;99885.94;5036771;28;2246;-64
2023/11/09 12:30:46;;;;;;;;;;;;;;;20.16;56.45;99885.72;5038091;28;6638;-65
2023/11/09 12:33:15;;;;;;;;;;;;;;;20.11;56.52;99884.13;5038280;28;2316;-65
2023/11/09 12:35:56;;;;;;;;;;;;;;;20.08;56.55;99889.81;5038899;28;2289;-65
2023/11/09 12:38:23;;;;;;;;;;;;;;;20.21;56.70;99888.09;5050490;28;2322;-66
2023/11/09 12:40:50;;;;;;;;;;;;;;;20.18;56.58;99895.19;5037715;28;2247;-69
2023/11/09 12:43:16;;;;;;;;;;;;;;;20.28;56.60;99880.38;5035354;28;2231;-67
2023/11/09 12:45:59;;;;;;;;;;;;;;;20.49;56.93;99885.34;5036689;28;4466;-66
2023/11/09 12:48:27;;;;;;;;;;;;;;;20.23;56.83;99875.91;5038078;28;2500;-66
2023/11/09 12:50:54;;;;;;;;;;;;;;;19.52;50.72;99868.56;5036715;28;2561;-65
2023/11/09 12:53:27;;;;;;;;;;;;;;;17.88;50.49;99876.78;5043583;28;2413;-68
2023/11/09 12:55:53;;;;;;;;;;;;;;;18.32;51.22;99883.56;5037190;28;2343;-67
2023/11/09 12:58:21;;;;;;;;;;;;;;;19.34;51.50;99883.03;5035004;28;2350;-68
2023/11/09 13:00:47;;;;;;;;;;;;;;;19.75;51.47;99884.44;5039092;28;6123;-67
2023/11/09 13:03:20;;;;;;;;;;;;;;;19.89;51.64;99876.28;5041313;28;2315;-67